»·PEaware :: JBU727 KPHX-KABQ

JBU727 :: KPHX-KABQ

FLIGHT INFORMATION

Flight Status: Arrived
Operator:
JetBlue Airways
More flights by this operator :: More flights under this callsign
Pilot: Josh G. (4619)
Aircraft: AIRBUS A320
(A320)
More flights by this aircraft type
Origin: KPHX Phoenix Sky Harbor Intl
United States
Destination: KABQ Albuquerque Intl Sunport
United States
More flights between these airports :: More routes between these airports
Route: LALUZ5 SJN CABNO KRKEE3
File this flight plan on PilotEdge
Remarks: stream.
Altitude:
(Current/Filed)
31,000ft
Speed:
(Current/Filed)
450kts
Departed: 27-Sep-17 06:43 PM
Arrived: 27-Sep-17 07:30 PM
Distance/Time
Traveled:
284nm/0:47
Distance/Time
To Go:
Arrived

Flight Plot

Page will automatically refresh every two minutes.

Flight plan parsing failed; only flown route is shown


Map Options




Map Legend


Flown Route
Filed Route
Departure Airport
Arrival Airport
Navaid (VOR, NDB)
Fix

Horizontal Profiles

Position Reports

Time Latitude Longitude Heading Altitude Ground
Speed
27-Sep-17 18:20 33.433677 -111.996229 314 1117ft 0kts
27-Sep-17 18:21 33.433677 -111.996229 314 1117ft 0kts
27-Sep-17 18:22 33.433677 -111.996229 314 1117ft 0kts
27-Sep-17 18:23 33.433677 -111.996229 314 1117ft 0kts
27-Sep-17 18:24 33.433677 -111.996229 314 1117ft 0kts
27-Sep-17 18:25 33.433677 -111.996229 314 1117ft 0kts
27-Sep-17 18:26 33.433677 -111.996229 314 1117ft 0kts
27-Sep-17 18:27 33.433677 -111.996229 314 1117ft 0kts
27-Sep-17 18:28 33.433677 -111.996229 314 1117ft 0kts
27-Sep-17 18:29 33.433677 -111.996229 314 1117ft 0kts
27-Sep-17 18:30 33.433677 -111.996229 314 1117ft 0kts
27-Sep-17 18:31 33.433677 -111.996229 314 1117ft 0kts
27-Sep-17 18:32 33.433677 -111.996229 314 1117ft 0kts
27-Sep-17 18:33 33.433677 -111.996229 314 1117ft 0kts
27-Sep-17 18:34 33.433677 -111.996229 314 1117ft 0kts
27-Sep-17 18:35 33.433554 -111.996002 276 1117ft 0kts
27-Sep-17 18:36 33.433972 -111.995481 181 1117ft 0kts
27-Sep-17 18:37 33.433972 -111.995481 181 1117ft 0kts
27-Sep-17 18:38 33.433972 -111.995481 181 1117ft 0kts
27-Sep-17 18:39 33.433386 -111.995367 172 1117ft 1kts
27-Sep-17 18:40 33.433386 -111.995367 173 1117ft 0kts
27-Sep-17 18:41 33.433386 -111.995367 173 1117ft 0kts
27-Sep-17 18:42 33.433095 -111.995354 186 1117ft 7kts
27-Sep-17 18:43 33.432128 -111.993944 92 1117ft 4kts
27-Sep-17 18:44 33.431983 -111.993583 143 1117ft 0kts
27-Sep-17 18:45 33.431964 -111.993568 144 1117ft 1kts
27-Sep-17 18:46 33.431026 -111.994746 270 1117ft 19kts
27-Sep-17 18:47 33.431001 -112.031565 268 1949ft 165kts
27-Sep-17 18:48 33.439228 -112.085254 321 3618ft 207kts
27-Sep-17 18:49 33.486578 -112.130759 319 5006ft 276kts
27-Sep-17 18:50 33.551031 -112.171187 0 8319ft 290kts
27-Sep-17 18:51 33.630129 -112.152279 44 10321ft 348kts
27-Sep-17 18:52 33.704062 -112.058200 48 11502ft 423kts
27-Sep-17 18:53 33.741464 -111.935772 95 14478ft 419kts
27-Sep-17 18:54 33.732080 -111.792085 98 16482ft 450kts
27-Sep-17 18:55 33.719278 -111.639408 96 18407ft 478kts
27-Sep-17 18:56 33.705576 -111.478681 95 20475ft 495kts
27-Sep-17 18:57 33.691993 -111.321228 97 22161ft 512kts
27-Sep-17 18:58 33.724935 -111.163385 65 23955ft 519kts
27-Sep-17 18:59 33.780954 -111.003315 65 25743ft 524kts
27-Sep-17 19:00 33.836775 -110.844563 65 27608ft 523kts
27-Sep-17 19:01 33.893381 -110.685121 65 29337ft 522kts
27-Sep-17 19:02 33.949617 -110.525981 66 30900ft 521kts
27-Sep-17 19:03 34.005578 -110.367113 68 31218ft 530kts
27-Sep-17 19:04 34.057565 -110.218070 66 31212ft 520kts
27-Sep-17 19:05 34.108997 -110.069526 67 31210ft 521kts
27-Sep-17 19:06 34.162308 -109.915011 67 31211ft 522kts
27-Sep-17 19:07 34.217288 -109.754565 67 31171ft 523kts
27-Sep-17 19:08 34.271965 -109.594290 68 31157ft 526kts
27-Sep-17 19:09 34.326418 -109.433627 70 31184ft 521kts
27-Sep-17 19:10 34.377722 -109.281456 71 31183ft 523kts
27-Sep-17 19:11 34.424591 -109.132197 83 31188ft 516kts
27-Sep-17 19:12 34.446795 -108.963697 86 31188ft 514kts
27-Sep-17 19:13 34.468019 -108.794598 86 31189ft 514kts
27-Sep-17 19:14 34.488784 -108.626914 86 31191ft 514kts
27-Sep-17 19:15 34.511584 -108.459557 81 30985ft 520kts
27-Sep-17 19:16 34.537312 -108.308835 83 30151ft 515kts
27-Sep-17 19:17 34.564616 -108.149188 82 29203ft 515kts
27-Sep-17 19:18 34.592878 -107.982730 82 28026ft 517kts
27-Sep-17 19:19 34.621984 -107.815872 74 26598ft 520kts
27-Sep-17 19:20 34.682469 -107.667324 64 25030ft 482kts
27-Sep-17 19:21 34.741173 -107.530869 63 22158ft 465kts
27-Sep-17 19:22 34.798356 -107.397662 64 19122ft 429kts
27-Sep-17 19:23 34.846266 -107.285463 65 16619ft 389kts
27-Sep-17 19:24 34.891122 -107.176151 71 13904ft 358kts
27-Sep-17 19:25 34.893190 -107.066957 95 11670ft 313kts
27-Sep-17 19:26 34.887813 -106.968983 94 9807ft 277kts
27-Sep-17 19:27 34.882321 -106.885645 92 8610ft 218kts
27-Sep-17 19:28 34.877946 -106.817559 88 7979ft 209kts
27-Sep-17 19:29 34.903026 -106.773775 44 7977ft 147kts
27-Sep-17 19:30 34.932296 -106.738888 43 7812ft 149kts
27-Sep-17 19:31 34.960754 -106.704678 43 7036ft 146kts
27-Sep-17 19:32 34.988947 -106.670727 43 6264ft 144kts
27-Sep-17 19:33 35.016335 -106.637760 43 5517ft 139kts
27-Sep-17 19:34 35.034724 -106.615561 44 5317ft 21kts
27-Sep-17 19:35 35.041546 -106.610761 2 5317ft 23kts
27-Sep-17 19:36 35.045474 -106.610522 347 5317ft 6kts
27-Sep-17 19:37 35.045826 -106.612659 270 5317ft 16kts
27-Sep-17 19:38 35.046815 -106.615922 12 5317ft 7kts
27-Sep-17 19:39 35.046946 -106.615887 12 5317ft 0kts
27-Sep-17 19:40 35.046946 -106.615887 12 5317ft 0kts
27-Sep-17 19:41 35.046946 -106.615887 12 5317ft 0kts
27-Sep-17 19:42 35.046946 -106.615887 12 5317ft 0kts
27-Sep-17 19:43 35.046946 -106.615887 12 5317ft 0kts
27-Sep-17 19:44 35.046946 -106.615887 12 5317ft 0kts
27-Sep-17 19:45 35.046946 -106.615887 12 5317ft 0kts

Navigation Log

Ident Type
Flight plan parsing failed, navigation log unavailable